sensor_id;sensor_type;location;lat;lon;timestamp;P1;durP1;ratioP1;P2;durP2;ratioP2
39674;SDS011;27790;50.840;4.386;2023-07-22T00:00:43;13.32;;;8.45;;
39674;SDS011;27790;50.840;4.386;2023-07-22T00:03:09;12.57;;;7.60;;
39674;SDS011;27790;50.840;4.386;2023-07-22T00:05:34;10.85;;;7.15;;
39674;SDS011;27790;50.840;4.386;2023-07-22T00:08:00;13.23;;;7.93;;
39674;SDS011;27790;50.840;4.386;2023-07-22T00:10:26;12.95;;;8.82;;
39674;SDS011;27790;50.840;4.386;2023-07-22T00:12:51;10.77;;;6.75;;
39674;SDS011;27790;50.840;4.386;2023-07-22T00:15:17;10.07;;;7.43;;
39674;SDS011;27790;50.840;4.386;2023-07-22T00:17:42;10.27;;;8.07;;
39674;SDS011;27790;50.840;4.386;2023-07-22T00:20:08;16.92;;;9.18;;
39674;SDS011;27790;50.840;4.386;2023-07-22T00:22:39;11.20;;;7.47;;
39674;SDS011;27790;50.840;4.386;2023-07-22T00:25:06;12.50;;;7.70;;
39674;SDS011;27790;50.840;4.386;2023-07-22T00:27:35;14.85;;;7.68;;
39674;SDS011;27790;50.840;4.386;2023-07-22T00:30:01;9.75;;;7.60;;
39674;SDS011;27790;50.840;4.386;2023-07-22T00:32:26;14.10;;;8.10;;
39674;SDS011;27790;50.840;4.386;2023-07-22T00:34:52;19.83;;;7.78;;
39674;SDS011;27790;50.840;4.386;2023-07-22T00:37:17;9.95;;;7.78;;
39674;SDS011;27790;50.840;4.386;2023-07-22T00:39:43;11.45;;;7.93;;
39674;SDS011;27790;50.840;4.386;2023-07-22T00:42:09;13.48;;;7.50;;
39674;SDS011;27790;50.840;4.386;2023-07-22T00:44:34;10.55;;;7.65;;
39674;SDS011;27790;50.840;4.386;2023-07-22T00:47:00;11.63;;;7.70;;
39674;SDS011;27790;50.840;4.386;2023-07-22T00:49:26;10.73;;;7.78;;
39674;SDS011;27790;50.840;4.386;2023-07-22T00:51:54;12.98;;;8.52;;
39674;SDS011;27790;50.840;4.386;2023-07-22T00:54:25;10.18;;;7.72;;
39674;SDS011;27790;50.840;4.386;2023-07-22T00:56:51;14.93;;;8.25;;
39674;SDS011;27790;50.840;4.386;2023-07-22T00:59:17;16.45;;;7.53;;
39674;SDS011;27790;50.840;4.386;2023-07-22T01:01:43;11.55;;;8.52;;
39674;SDS011;27790;50.840;4.386;2023-07-22T01:04:09;11.60;;;7.80;;
39674;SDS011;27790;50.840;4.386;2023-07-22T01:06:35;11.52;;;7.78;;
39674;SDS011;27790;50.840;4.386;2023-07-22T01:09:01;12.38;;;8.00;;
39674;SDS011;27790;50.840;4.386;2023-07-22T01:11:27;13.60;;;7.55;;
39674;SDS011;27790;50.840;4.386;2023-07-22T01:13:53;12.02;;;7.43;;
39674;SDS011;27790;50.840;4.386;2023-07-22T01:16:23;13.95;;;8.55;;
39674;SDS011;27790;50.840;4.386;2023-07-22T01:18:50;15.40;;;7.68;;
39674;SDS011;27790;50.840;4.386;2023-07-22T01:21:17;11.70;;;7.60;;
39674;SDS011;27790;50.840;4.386;2023-07-22T01:23:44;11.02;;;8.30;;
39674;SDS011;27790;50.840;4.386;2023-07-22T01:26:09;12.52;;;7.88;;
39674;SDS011;27790;50.840;4.386;2023-07-22T01:28:35;10.63;;;7.82;;
39674;SDS011;27790;50.840;4.386;2023-07-22T01:31:01;17.80;;;8.65;;
39674;SDS011;27790;50.840;4.386;2023-07-22T01:33:26;12.30;;;7.90;;
39674;SDS011;27790;50.840;4.386;2023-07-22T01:35:52;12.98;;;7.30;;
39674;SDS011;27790;50.840;4.386;2023-07-22T01:38:18;14.18;;;8.55;;
39674;SDS011;27790;50.840;4.386;2023-07-22T01:40:44;13.88;;;8.20;;
39674;SDS011;27790;50.840;4.386;2023-07-22T01:43:10;13.20;;;7.70;;
39674;SDS011;27790;50.840;4.386;2023-07-22T01:45:35;14.40;;;8.02;;
39674;SDS011;27790;50.840;4.386;2023-07-22T01:48:02;17.25;;;8.32;;
39674;SDS011;27790;50.840;4.386;2023-07-22T01:50:28;18.13;;;8.20;;
39674;SDS011;27790;50.840;4.386;2023-07-22T01:52:54;17.13;;;9.02;;
39674;SDS011;27790;50.840;4.386;2023-07-22T01:55:20;13.35;;;8.68;;
39674;SDS011;27790;50.840;4.386;2023-07-22T01:57:46;14.15;;;7.93;;
39674;SDS011;27790;50.840;4.386;2023-07-22T02:00:11;16.55;;;9.50;;
39674;SDS011;27790;50.840;4.386;2023-07-22T02:02:37;16.25;;;8.82;;
39674;SDS011;27790;50.840;4.386;2023-07-22T02:05:03;13.40;;;8.27;;
39674;SDS011;27790;50.840;4.386;2023-07-22T02:07:29;14.82;;;8.65;;
39674;SDS011;27790;50.840;4.386;2023-07-22T02:09:55;14.70;;;8.77;;
39674;SDS011;27790;50.840;4.386;2023-07-22T02:12:20;12.40;;;7.85;;
39674;SDS011;27790;50.840;4.386;2023-07-22T02:14:46;10.88;;;7.70;;
39674;SDS011;27790;50.840;4.386;2023-07-22T02:17:11;14.80;;;8.57;;
39674;SDS011;27790;50.840;4.386;2023-07-22T02:19:37;14.45;;;8.55;;
39674;SDS011;27790;50.840;4.386;2023-07-22T02:22:03;17.98;;;9.20;;
39674;SDS011;27790;50.840;4.386;2023-07-22T02:24:29;13.73;;;8.57;;
39674;SDS011;27790;50.840;4.386;2023-07-22T02:26:55;14.25;;;9.00;;
39674;SDS011;27790;50.840;4.386;2023-07-22T02:29:21;19.30;;;9.05;;
39674;SDS011;27790;50.840;4.386;2023-07-22T02:31:47;16.88;;;8.90;;
39674;SDS011;27790;50.840;4.386;2023-07-22T02:34:12;13.10;;;8.95;;
39674;SDS011;27790;50.840;4.386;2023-07-22T02:36:38;17.02;;;9.43;;
39674;SDS011;27790;50.840;4.386;2023-07-22T02:39:03;15.35;;;9.27;;
39674;SDS011;27790;50.840;4.386;2023-07-22T02:41:29;15.15;;;10.25;;
39674;SDS011;27790;50.840;4.386;2023-07-22T02:43:55;17.00;;;9.85;;
39674;SDS011;27790;50.840;4.386;2023-07-22T02:46:20;18.70;;;10.15;;
39674;SDS011;27790;50.840;4.386;2023-07-22T02:48:47;18.40;;;9.00;;
39674;SDS011;27790;50.840;4.386;2023-07-22T02:51:12;15.27;;;10.00;;
39674;SDS011;27790;50.840;4.386;2023-07-22T02:53:38;19.30;;;12.15;;
39674;SDS011;27790;50.840;4.386;2023-07-22T02:56:07;24.10;;;11.02;;
39674;SDS011;27790;50.840;4.386;2023-07-22T02:58:33;15.35;;;9.85;;
39674;SDS011;27790;50.840;4.386;2023-07-22T03:00:59;16.08;;;10.98;;
39674;SDS011;27790;50.840;4.386;2023-07-22T03:03:24;19.30;;;11.10;;
39674;SDS011;27790;50.840;4.386;2023-07-22T03:05:50;25.90;;;11.32;;
39674;SDS011;27790;50.840;4.386;2023-07-22T03:08:17;18.63;;;10.32;;
39674;SDS011;27790;50.840;4.386;2023-07-22T03:10:43;31.35;;;11.20;;
39674;SDS011;27790;50.840;4.386;2023-07-22T03:13:13;23.02;;;12.05;;
39674;SDS011;27790;50.840;4.386;2023-07-22T03:15:41;19.42;;;11.50;;
39674;SDS011;27790;50.840;4.386;2023-07-22T03:18:07;16.00;;;10.80;;
39674;SDS011;27790;50.840;4.386;2023-07-22T03:20:35;19.38;;;11.90;;
39674;SDS011;27790;50.840;4.386;2023-07-22T03:23:01;23.13;;;10.85;;
39674;SDS011;27790;50.840;4.386;2023-07-22T03:25:27;21.40;;;10.57;;
39674;SDS011;27790;50.840;4.386;2023-07-22T03:27:53;21.90;;;11.30;;
39674;SDS011;27790;50.840;4.386;2023-07-22T03:30:20;23.25;;;10.93;;
39674;SDS011;27790;50.840;4.386;2023-07-22T03:32:47;18.23;;;12.25;;
39674;SDS011;27790;50.840;4.386;2023-07-22T03:35:15;18.65;;;9.93;;
39674;SDS011;27790;50.840;4.386;2023-07-22T03:37:41;27.52;;;11.40;;
39674;SDS011;27790;50.840;4.386;2023-07-22T03:40:08;23.27;;;11.07;;
39674;SDS011;27790;50.840;4.386;2023-07-22T03:42:39;21.58;;;11.10;;
39674;SDS011;27790;50.840;4.386;2023-07-22T03:45:06;25.95;;;10.60;;
39674;SDS011;27790;50.840;4.386;2023-07-22T03:47:32;18.92;;;10.52;;
39674;SDS011;27790;50.840;4.386;2023-07-22T03:49:58;17.60;;;9.93;;
39674;SDS011;27790;50.840;4.386;2023-07-22T03:52:24;24.50;;;10.68;;
39674;SDS011;27790;50.840;4.386;2023-07-22T03:54:49;25.30;;;12.07;;
39674;SDS011;27790;50.840;4.386;2023-07-22T03:57:15;19.95;;;10.25;;
39674;SDS011;27790;50.840;4.386;2023-07-22T03:59:40;19.17;;;9.75;;
39674;SDS011;27790;50.840;4.386;2023-07-22T04:02:06;21.40;;;11.18;;
39674;SDS011;27790;50.840;4.386;2023-07-22T04:04:31;16.83;;;10.45;;
39674;SDS011;27790;50.840;4.386;2023-07-22T04:06:57;22.10;;;10.35;;
39674;SDS011;27790;50.840;4.386;2023-07-22T04:09:22;20.92;;;10.45;;
39674;SDS011;27790;50.840;4.386;2023-07-22T04:11:48;23.33;;;9.93;;
39674;SDS011;27790;50.840;4.386;2023-07-22T04:14:14;18.20;;;10.18;;
39674;SDS011;27790;50.840;4.386;2023-07-22T04:16:40;16.92;;;9.95;;
39674;SDS011;27790;50.840;4.386;2023-07-22T04:19:06;18.48;;;10.20;;
39674;SDS011;27790;50.840;4.386;2023-07-22T04:21:31;20.70;;;11.60;;
39674;SDS011;27790;50.840;4.386;2023-07-22T04:23:57;22.17;;;9.25;;
39674;SDS011;27790;50.840;4.386;2023-07-22T04:26:23;19.00;;;10.05;;
39674;SDS011;27790;50.840;4.386;2023-07-22T04:28:48;19.50;;;9.63;;
39674;SDS011;27790;50.840;4.386;2023-07-22T04:31:14;20.13;;;10.50;;
39674;SDS011;27790;50.840;4.386;2023-07-22T04:33:39;18.20;;;10.98;;
39674;SDS011;27790;50.840;4.386;2023-07-22T04:36:06;19.33;;;10.27;;
39674;SDS011;27790;50.840;4.386;2023-07-22T04:38:32;22.90;;;10.13;;
39674;SDS011;27790;50.840;4.386;2023-07-22T04:40:58;17.92;;;10.27;;
39674;SDS011;27790;50.840;4.386;2023-07-22T04:43:26;22.85;;;9.80;;
39674;SDS011;27790;50.840;4.386;2023-07-22T04:45:52;24.58;;;10.40;;
39674;SDS011;27790;50.840;4.386;2023-07-22T04:48:19;16.92;;;9.35;;
39674;SDS011;27790;50.840;4.386;2023-07-22T04:50:45;23.35;;;9.75;;
39674;SDS011;27790;50.840;4.386;2023-07-22T04:53:11;17.40;;;9.13;;
39674;SDS011;27790;50.840;4.386;2023-07-22T04:55:40;23.95;;;9.95;;
39674;SDS011;27790;50.840;4.386;2023-07-22T04:58:06;13.43;;;8.85;;
39674;SDS011;27790;50.840;4.386;2023-07-22T05:00:33;20.23;;;9.43;;
39674;SDS011;27790;50.840;4.386;2023-07-22T05:02:58;19.60;;;9.18;;
39674;SDS011;27790;50.840;4.386;2023-07-22T05:05:24;16.15;;;9.18;;
39674;SDS011;27790;50.840;4.386;2023-07-22T05:07:50;19.67;;;9.95;;
39674;SDS011;27790;50.840;4.386;2023-07-22T05:10:17;29.08;;;11.38;;
39674;SDS011;27790;50.840;4.386;2023-07-22T05:12:44;20.25;;;9.52;;
39674;SDS011;27790;50.840;4.386;2023-07-22T05:15:10;16.63;;;8.88;;
39674;SDS011;27790;50.840;4.386;2023-07-22T05:17:37;18.83;;;8.98;;
39674;SDS011;27790;50.840;4.386;2023-07-22T05:20:03;29.15;;;9.85;;
39674;SDS011;27790;50.840;4.386;2023-07-22T05:22:35;17.00;;;8.75;;
39674;SDS011;27790;50.840;4.386;2023-07-22T05:25:01;18.92;;;8.32;;
39674;SDS011;27790;50.840;4.386;2023-07-22T05:27:27;19.42;;;9.32;;
39674;SDS011;27790;50.840;4.386;2023-07-22T05:29:53;18.08;;;9.35;;
39674;SDS011;27790;50.840;4.386;2023-07-22T05:32:19;17.33;;;8.38;;
39674;SDS011;27790;50.840;4.386;2023-07-22T05:34:45;13.63;;;7.78;;
39674;SDS011;27790;50.840;4.386;2023-07-22T05:37:10;14.90;;;7.82;;
39674;SDS011;27790;50.840;4.386;2023-07-22T05:39:36;15.75;;;7.72;;
39674;SDS011;27790;50.840;4.386;2023-07-22T05:42:01;17.58;;;8.20;;
39674;SDS011;27790;50.840;4.386;2023-07-22T05:44:27;21.92;;;7.78;;
39674;SDS011;27790;50.840;4.386;2023-07-22T05:46:52;13.95;;;6.82;;
39674;SDS011;27790;50.840;4.386;2023-07-22T05:49:18;24.17;;;7.80;;
39674;SDS011;27790;50.840;4.386;2023-07-22T05:51:44;12.23;;;7.53;;
39674;SDS011;27790;50.840;4.386;2023-07-22T05:54:09;11.98;;;6.72;;
39674;SDS011;27790;50.840;4.386;2023-07-22T05:56:35;14.32;;;7.60;;
39674;SDS011;27790;50.840;4.386;2023-07-22T05:59:00;15.60;;;6.63;;
39674;SDS011;27790;50.840;4.386;2023-07-22T06:01:26;15.77;;;6.72;;
39674;SDS011;27790;50.840;4.386;2023-07-22T06:03:51;16.20;;;6.90;;
39674;SDS011;27790;50.840;4.386;2023-07-22T06:06:18;13.00;;;6.70;;
39674;SDS011;27790;50.840;4.386;2023-07-22T06:08:43;14.07;;;7.18;;
39674;SDS011;27790;50.840;4.386;2023-07-22T06:11:09;13.50;;;6.35;;
39674;SDS011;27790;50.840;4.386;2023-07-22T06:13:35;17.45;;;6.40;;
39674;SDS011;27790;50.840;4.386;2023-07-22T06:16:01;8.93;;;5.97;;
39674;SDS011;27790;50.840;4.386;2023-07-22T06:18:27;10.98;;;6.32;;
39674;SDS011;27790;50.840;4.386;2023-07-22T06:20:53;12.82;;;6.93;;
39674;SDS011;27790;50.840;4.386;2023-07-22T06:23:19;22.67;;;7.60;;
39674;SDS011;27790;50.840;4.386;2023-07-22T06:25:44;14.93;;;5.82;;
39674;SDS011;27790;50.840;4.386;2023-07-22T06:28:10;13.02;;;5.85;;
39674;SDS011;27790;50.840;4.386;2023-07-22T06:30:35;13.27;;;6.15;;
39674;SDS011;27790;50.840;4.386;2023-07-22T06:33:01;15.27;;;6.45;;
39674;SDS011;27790;50.840;4.386;2023-07-22T06:35:26;15.27;;;6.85;;
39674;SDS011;27790;50.840;4.386;2023-07-22T06:37:52;20.05;;;6.18;;
39674;SDS011;27790;50.840;4.386;2023-07-22T06:40:18;14.75;;;6.40;;
39674;SDS011;27790;50.840;4.386;2023-07-22T06:42:44;13.95;;;6.35;;
39674;SDS011;27790;50.840;4.386;2023-07-22T06:45:09;12.68;;;5.75;;
39674;SDS011;27790;50.840;4.386;2023-07-22T06:47:35;11.98;;;5.55;;
39674;SDS011;27790;50.840;4.386;2023-07-22T06:50:02;9.00;;;6.35;;
39674;SDS011;27790;50.840;4.386;2023-07-22T06:52:29;11.10;;;5.55;;
39674;SDS011;27790;50.840;4.386;2023-07-22T06:54:55;11.02;;;6.10;;
39674;SDS011;27790;50.840;4.386;2023-07-22T06:57:21;12.10;;;6.15;;
39674;SDS011;27790;50.840;4.386;2023-07-22T06:59:46;14.20;;;5.47;;
39674;SDS011;27790;50.840;4.386;2023-07-22T07:02:12;14.13;;;7.05;;
39674;SDS011;27790;50.840;4.386;2023-07-22T07:04:38;8.93;;;4.88;;
39674;SDS011;27790;50.840;4.386;2023-07-22T07:07:03;14.82;;;7.10;;
39674;SDS011;27790;50.840;4.386;2023-07-22T07:09:29;11.20;;;6.13;;
39674;SDS011;27790;50.840;4.386;2023-07-22T07:11:55;19.58;;;5.95;;
39674;SDS011;27790;50.840;4.386;2023-07-22T07:14:23;11.73;;;5.70;;
39674;SDS011;27790;50.840;4.386;2023-07-22T07:16:49;12.90;;;5.10;;
39674;SDS011;27790;50.840;4.386;2023-07-22T07:19:15;10.57;;;5.68;;
39674;SDS011;27790;50.840;4.386;2023-07-22T07:21:40;13.48;;;5.78;;
39674;SDS011;27790;50.840;4.386;2023-07-22T07:24:06;8.57;;;4.88;;
39674;SDS011;27790;50.840;4.386;2023-07-22T07:26:32;10.15;;;5.60;;
39674;SDS011;27790;50.840;4.386;2023-07-22T07:28:58;10.77;;;5.18;;
39674;SDS011;27790;50.840;4.386;2023-07-22T07:31:24;8.90;;;5.25;;
39674;SDS011;27790;50.840;4.386;2023-07-22T07:33:50;8.77;;;5.82;;
39674;SDS011;27790;50.840;4.386;2023-07-22T07:36:16;13.70;;;5.70;;
39674;SDS011;27790;50.840;4.386;2023-07-22T07:38:41;9.00;;;5.13;;
39674;SDS011;27790;50.840;4.386;2023-07-22T07:41:07;10.10;;;4.97;;
39674;SDS011;27790;50.840;4.386;2023-07-22T07:43:34;9.93;;;5.43;;
39674;SDS011;27790;50.840;4.386;2023-07-22T07:46:19;8.05;;;4.78;;
39674;SDS011;27790;50.840;4.386;2023-07-22T07:48:53;15.65;;;5.20;;
39674;SDS011;27790;50.840;4.386;2023-07-22T07:53:52;9.05;;;4.45;;
39674;SDS011;27790;50.840;4.386;2023-07-22T07:56:19;9.55;;;4.80;;
39674;SDS011;27790;50.840;4.386;2023-07-22T07:58:45;8.95;;;4.53;;
39674;SDS011;27790;50.840;4.386;2023-07-22T08:01:12;9.82;;;5.70;;
39674;SDS011;27790;50.840;4.386;2023-07-22T08:03:38;10.82;;;4.35;;
39674;SDS011;27790;50.840;4.386;2023-07-22T08:06:04;13.25;;;4.68;;
39674;SDS011;27790;50.840;4.386;2023-07-22T08:08:31;10.80;;;4.55;;
39674;SDS011;27790;50.840;4.386;2023-07-22T08:10:58;12.05;;;4.70;;
39674;SDS011;27790;50.840;4.386;2023-07-22T08:13:42;12.85;;;4.97;;
39674;SDS011;27790;50.840;4.386;2023-07-22T08:16:09;11.55;;;4.78;;
39674;SDS011;27790;50.840;4.386;2023-07-22T08:18:36;12.80;;;4.63;;
39674;SDS011;27790;50.840;4.386;2023-07-22T08:21:03;8.95;;;4.05;;
39674;SDS011;27790;50.840;4.386;2023-07-22T08:23:30;8.30;;;4.03;;
39674;SDS011;27790;50.840;4.386;2023-07-22T08:25:56;9.93;;;4.30;;
39674;SDS011;27790;50.840;4.386;2023-07-22T08:28:22;7.25;;;3.95;;
39674;SDS011;27790;50.840;4.386;2023-07-22T08:30:48;9.75;;;3.85;;
39674;SDS011;27790;50.840;4.386;2023-07-22T08:33:14;10.93;;;3.55;;
39674;SDS011;27790;50.840;4.386;2023-07-22T08:35:41;8.88;;;3.40;;
39674;SDS011;27790;50.840;4.386;2023-07-22T08:38:07;6.32;;;3.50;;
39674;SDS011;27790;50.840;4.386;2023-07-22T08:40:34;9.88;;;4.43;;
39674;SDS011;27790;50.840;4.386;2023-07-22T08:43:04;9.45;;;4.20;;
39674;SDS011;27790;50.840;4.386;2023-07-22T08:45:32;12.68;;;3.42;;
39674;SDS011;27790;50.840;4.386;2023-07-22T08:48:05;7.78;;;3.45;;
39674;SDS011;27790;50.840;4.386;2023-07-22T08:50:44;7.25;;;3.55;;
39674;SDS011;27790;50.840;4.386;2023-07-22T08:53:14;6.60;;;3.53;;
39674;SDS011;27790;50.840;4.386;2023-07-22T08:55:41;10.30;;;3.72;;
39674;SDS011;27790;50.840;4.386;2023-07-22T08:58:08;9.07;;;3.05;;
39674;SDS011;27790;50.840;4.386;2023-07-22T09:00:34;8.02;;;3.72;;
39674;SDS011;27790;50.840;4.386;2023-07-22T09:03:00;9.00;;;3.53;;
39674;SDS011;27790;50.840;4.386;2023-07-22T09:05:26;11.63;;;3.42;;
39674;SDS011;27790;50.840;4.386;2023-07-22T09:07:53;9.18;;;3.05;;
39674;SDS011;27790;50.840;4.386;2023-07-22T09:10:20;9.40;;;2.85;;
39674;SDS011;27790;50.840;4.386;2023-07-22T09:12:47;4.68;;;2.40;;
39674;SDS011;27790;50.840;4.386;2023-07-22T09:15:12;3.95;;;2.30;;
39674;SDS011;27790;50.840;4.386;2023-07-22T09:17:38;2.80;;;2.30;;
39674;SDS011;27790;50.840;4.386;2023-07-22T09:20:05;2.47;;;2.28;;
39674;SDS011;27790;50.840;4.386;2023-07-22T09:22:31;3.78;;;2.20;;
39674;SDS011;27790;50.840;4.386;2023-07-22T09:27:43;4.00;;;2.30;;
39674;SDS011;27790;50.840;4.386;2023-07-22T09:30:25;4.93;;;1.95;;
39674;SDS011;27790;50.840;4.386;2023-07-22T09:33:04;5.20;;;1.92;;
39674;SDS011;27790;50.840;4.386;2023-07-22T09:35:53;6.22;;;2.33;;
39674;SDS011;27790;50.840;4.386;2023-07-22T09:38:23;5.53;;;2.80;;
39674;SDS011;27790;50.840;4.386;2023-07-22T09:40:50;5.38;;;2.13;;
39674;SDS011;27790;50.840;4.386;2023-07-22T09:43:16;4.80;;;2.47;;
39674;SDS011;27790;50.840;4.386;2023-07-22T09:45:46;3.40;;;1.85;;
39674;SDS011;27790;50.840;4.386;2023-07-22T09:48:12;3.00;;;2.05;;
39674;SDS011;27790;50.840;4.386;2023-07-22T09:50:38;3.05;;;2.17;;
39674;SDS011;27790;50.840;4.386;2023-07-22T09:53:04;3.00;;;1.92;;
39674;SDS011;27790;50.840;4.386;2023-07-22T09:55:30;5.25;;;2.00;;
39674;SDS011;27790;50.840;4.386;2023-07-22T09:58:00;6.22;;;2.08;;
39674;SDS011;27790;50.840;4.386;2023-07-22T10:00:28;5.03;;;1.83;;
39674;SDS011;27790;50.840;4.386;2023-07-22T10:02:56;2.80;;;1.90;;
39674;SDS011;27790;50.840;4.386;2023-07-22T10:05:24;2.53;;;1.60;;
39674;SDS011;27790;50.840;4.386;2023-07-22T10:07:51;9.10;;;1.58;;
39674;SDS011;27790;50.840;4.386;2023-07-22T10:10:20;2.78;;;1.83;;
39674;SDS011;27790;50.840;4.386;2023-07-22T10:12:56;2.70;;;1.85;;
39674;SDS011;27790;50.840;4.386;2023-07-22T10:15:23;4.43;;;2.08;;
39674;SDS011;27790;50.840;4.386;2023-07-22T10:17:50;3.28;;;2.00;;
39674;SDS011;27790;50.840;4.386;2023-07-22T10:20:18;3.88;;;1.33;;
39674;SDS011;27790;50.840;4.386;2023-07-22T10:22:45;2.60;;;1.70;;
39674;SDS011;27790;50.840;4.386;2023-07-22T10:25:14;4.65;;;2.33;;
39674;SDS011;27790;50.840;4.386;2023-07-22T10:27:41;5.93;;;1.63;;
39674;SDS011;27790;50.840;4.386;2023-07-22T10:30:09;3.83;;;1.42;;
39674;SDS011;27790;50.840;4.386;2023-07-22T10:32:37;4.78;;;1.63;;
39674;SDS011;27790;50.840;4.386;2023-07-22T10:35:07;7.38;;;1.60;;
39674;SDS011;27790;50.840;4.386;2023-07-22T10:37:35;3.10;;;1.33;;
39674;SDS011;27790;50.840;4.386;2023-07-22T10:40:15;3.95;;;1.50;;
39674;SDS011;27790;50.840;4.386;2023-07-22T10:42:43;4.32;;;1.52;;
39674;SDS011;27790;50.840;4.386;2023-07-22T10:45:28;4.70;;;1.50;;
39674;SDS011;27790;50.840;4.386;2023-07-22T10:48:02;2.65;;;1.60;;
39674;SDS011;27790;50.840;4.386;2023-07-22T10:53:12;4.88;;;1.42;;
39674;SDS011;27790;50.840;4.386;2023-07-22T11:01:23;4.43;;;2.10;;
39674;SDS011;27790;50.840;4.386;2023-07-22T11:11:55;2.38;;;1.80;;
39674;SDS011;27790;50.840;4.386;2023-07-22T11:14:25;3.13;;;1.75;;
39674;SDS011;27790;50.840;4.386;2023-07-22T11:16:58;7.15;;;2.03;;
39674;SDS011;27790;50.840;4.386;2023-07-22T11:19:32;2.65;;;2.10;;
39674;SDS011;27790;50.840;4.386;2023-07-22T11:21:58;4.30;;;2.30;;
39674;SDS011;27790;50.840;4.386;2023-07-22T11:24:25;3.63;;;1.70;;
39674;SDS011;27790;50.840;4.386;2023-07-22T11:26:51;4.05;;;2.35;;
39674;SDS011;27790;50.840;4.386;2023-07-22T11:29:17;4.90;;;2.25;;
39674;SDS011;27790;50.840;4.386;2023-07-22T11:31:43;2.35;;;1.85;;
39674;SDS011;27790;50.840;4.386;2023-07-22T11:34:17;2.80;;;1.75;;
39674;SDS011;27790;50.840;4.386;2023-07-22T11:36:46;2.42;;;1.88;;
39674;SDS011;27790;50.840;4.386;2023-07-22T11:39:16;3.65;;;2.17;;
39674;SDS011;27790;50.840;4.386;2023-07-22T11:41:43;4.15;;;1.90;;
39674;SDS011;27790;50.840;4.386;2023-07-22T11:44:12;2.20;;;1.85;;
39674;SDS011;27790;50.840;4.386;2023-07-22T11:46:52;2.92;;;1.42;;
39674;SDS011;27790;50.840;4.386;2023-07-22T11:51:55;3.88;;;1.80;;
39674;SDS011;27790;50.840;4.386;2023-07-22T11:54:23;3.75;;;2.10;;
39674;SDS011;27790;50.840;4.386;2023-07-22T11:56:49;3.38;;;1.70;;
39674;SDS011;27790;50.840;4.386;2023-07-22T11:59:15;4.22;;;2.22;;
39674;SDS011;27790;50.840;4.386;2023-07-22T12:01:43;2.35;;;2.00;;
39674;SDS011;27790;50.840;4.386;2023-07-22T12:04:11;4.93;;;1.70;;
39674;SDS011;27790;50.840;4.386;2023-07-22T12:06:37;7.57;;;2.20;;
39674;SDS011;27790;50.840;4.386;2023-07-22T12:09:03;2.67;;;2.22;;
39674;SDS011;27790;50.840;4.386;2023-07-22T12:11:31;3.97;;;2.00;;
39674;SDS011;27790;50.840;4.386;2023-07-22T12:16:29;5.75;;;1.67;;
39674;SDS011;27790;50.840;4.386;2023-07-22T12:18:55;3.85;;;1.60;;
39674;SDS011;27790;50.840;4.386;2023-07-22T12:21:21;5.03;;;1.77;;
39674;SDS011;27790;50.840;4.386;2023-07-22T12:23:47;3.03;;;1.73;;
39674;SDS011;27790;50.840;4.386;2023-07-22T12:26:12;6.88;;;2.08;;
39674;SDS011;27790;50.840;4.386;2023-07-22T12:28:38;3.90;;;1.60;;
39674;SDS011;27790;50.840;4.386;2023-07-22T12:31:04;1.63;;;1.52;;
39674;SDS011;27790;50.840;4.386;2023-07-22T12:33:29;3.70;;;1.50;;
39674;SDS011;27790;50.840;4.386;2023-07-22T12:35:56;2.15;;;1.40;;
39674;SDS011;27790;50.840;4.386;2023-07-22T12:38:22;3.38;;;1.38;;
39674;SDS011;27790;50.840;4.386;2023-07-22T12:40:48;4.22;;;2.25;;
39674;SDS011;27790;50.840;4.386;2023-07-22T12:43:14;5.07;;;2.05;;
39674;SDS011;27790;50.840;4.386;2023-07-22T12:45:39;3.83;;;1.25;;
39674;SDS011;27790;50.840;4.386;2023-07-22T12:48:05;1.77;;;1.20;;
39674;SDS011;27790;50.840;4.386;2023-07-22T12:50:31;3.05;;;1.33;;
39674;SDS011;27790;50.840;4.386;2023-07-22T12:52:58;4.10;;;1.42;;
39674;SDS011;27790;50.840;4.386;2023-07-22T12:55:24;3.85;;;1.52;;
39674;SDS011;27790;50.840;4.386;2023-07-22T12:57:50;1.73;;;1.52;;
39674;SDS011;27790;50.840;4.386;2023-07-22T13:00:16;7.70;;;1.58;;
39674;SDS011;27790;50.840;4.386;2023-07-22T13:02:42;1.83;;;1.40;;
39674;SDS011;27790;50.840;4.386;2023-07-22T13:05:08;2.40;;;1.80;;
39674;SDS011;27790;50.840;4.386;2023-07-22T13:07:34;1.80;;;1.67;;
39674;SDS011;27790;50.840;4.386;2023-07-22T13:10:00;1.75;;;1.50;;
39674;SDS011;27790;50.840;4.386;2023-07-22T13:12:28;5.75;;;1.65;;
39674;SDS011;27790;50.840;4.386;2023-07-22T13:14:54;3.15;;;1.50;;
39674;SDS011;27790;50.840;4.386;2023-07-22T13:17:20;2.78;;;1.77;;
39674;SDS011;27790;50.840;4.386;2023-07-22T13:19:45;5.40;;;1.40;;
39674;SDS011;27790;50.840;4.386;2023-07-22T13:22:11;4.20;;;2.08;;
39674;SDS011;27790;50.840;4.386;2023-07-22T13:24:37;4.10;;;1.60;;
39674;SDS011;27790;50.840;4.386;2023-07-22T13:27:03;2.78;;;1.50;;
39674;SDS011;27790;50.840;4.386;2023-07-22T13:29:29;5.63;;;2.08;;
39674;SDS011;27790;50.840;4.386;2023-07-22T13:31:55;1.98;;;1.40;;
39674;SDS011;27790;50.840;4.386;2023-07-22T13:34:21;2.42;;;1.90;;
39674;SDS011;27790;50.840;4.386;2023-07-22T13:36:47;3.97;;;1.42;;
39674;SDS011;27790;50.840;4.386;2023-07-22T13:39:12;4.82;;;1.80;;
39674;SDS011;27790;50.840;4.386;2023-07-22T13:41:38;3.10;;;1.73;;
39674;SDS011;27790;50.840;4.386;2023-07-22T13:44:04;1.88;;;1.55;;
39674;SDS011;27790;50.840;4.386;2023-07-22T13:46:30;2.03;;;1.35;;
39674;SDS011;27790;50.840;4.386;2023-07-22T13:48:56;5.43;;;2.28;;
39674;SDS011;27790;50.840;4.386;2023-07-22T13:51:22;2.42;;;1.70;;
39674;SDS011;27790;50.840;4.386;2023-07-22T13:53:47;7.65;;;2.33;;
39674;SDS011;27790;50.840;4.386;2023-07-22T13:56:13;4.15;;;1.77;;
39674;SDS011;27790;50.840;4.386;2023-07-22T13:58:39;9.82;;;1.70;;
39674;SDS011;27790;50.840;4.386;2023-07-22T14:01:04;3.33;;;1.77;;
39674;SDS011;27790;50.840;4.386;2023-07-22T14:03:30;11.50;;;2.72;;
39674;SDS011;27790;50.840;4.386;2023-07-22T14:05:56;3.13;;;2.30;;
39674;SDS011;27790;50.840;4.386;2023-07-22T14:08:22;3.30;;;2.17;;
39674;SDS011;27790;50.840;4.386;2023-07-22T14:10:47;5.55;;;1.63;;
39674;SDS011;27790;50.840;4.386;2023-07-22T14:13:13;4.00;;;1.67;;
39674;SDS011;27790;50.840;4.386;2023-07-22T14:15:38;2.75;;;2.05;;
39674;SDS011;27790;50.840;4.386;2023-07-22T14:18:04;3.38;;;1.88;;
39674;SDS011;27790;50.840;4.386;2023-07-22T14:20:30;7.20;;;1.75;;
39674;SDS011;27790;50.840;4.386;2023-07-22T14:22:56;1.90;;;1.50;;
39674;SDS011;27790;50.840;4.386;2023-07-22T14:25:22;2.97;;;1.95;;
39674;SDS011;27790;50.840;4.386;2023-07-22T14:27:47;2.33;;;1.77;;
39674;SDS011;27790;50.840;4.386;2023-07-22T14:30:13;6.50;;;1.60;;
39674;SDS011;27790;50.840;4.386;2023-07-22T14:32:39;3.75;;;1.60;;
39674;SDS011;27790;50.840;4.386;2023-07-22T14:35:05;3.90;;;1.90;;
39674;SDS011;27790;50.840;4.386;2023-07-22T14:37:31;8.45;;;1.88;;
39674;SDS011;27790;50.840;4.386;2023-07-22T14:39:57;6.88;;;2.10;;
39674;SDS011;27790;50.840;4.386;2023-07-22T14:42:23;4.47;;;1.50;;
39674;SDS011;27790;50.840;4.386;2023-07-22T14:44:48;3.83;;;1.52;;
39674;SDS011;27790;50.840;4.386;2023-07-22T14:47:14;5.20;;;2.10;;
39674;SDS011;27790;50.840;4.386;2023-07-22T14:49:39;4.45;;;1.35;;
39674;SDS011;27790;50.840;4.386;2023-07-22T14:52:05;6.40;;;2.15;;
39674;SDS011;27790;50.840;4.386;2023-07-22T14:54:31;2.15;;;1.52;;
39674;SDS011;27790;50.840;4.386;2023-07-22T14:56:58;3.58;;;1.70;;
39674;SDS011;27790;50.840;4.386;2023-07-22T14:59:24;5.88;;;2.38;;
39674;SDS011;27790;50.840;4.386;2023-07-22T15:01:51;2.88;;;1.63;;